Aviation Digital Data Service (ADDS)

Output produced by METARs form (0927 UTC 19 November 2018)
found at http://www.aviationweather.gov/metar/data/
 
RJCM 190900Z VRB01KT 5000 SHRA BR FEW002 SCT010 BKN015 03/02 Q1012
TAF RJCM 190513Z 1906/2012 35005KT 9999 -SHRA FEW005 BKN015 
     TEMPO 1906/1912 2000 SHRA BR FEW003 BKN005 
     TEMPO 1912/1918 4000 -SHRASN BR FEW005 BKN008